createdAt,value
2022-08-17T00:00:01.601Z,84.35
2022-08-17T00:03:17.894Z,84.20
2022-08-17T00:06:15.423Z,85.02
2022-08-17T00:08:50.732Z,85.06
2022-08-17T00:11:22.779Z,84.72
2022-08-17T00:13:56.082Z,85.03
2022-08-17T00:16:56.467Z,85.03
2022-08-17T00:19:24.236Z,85.11
2022-08-17T00:22:32.591Z,85.26
2022-08-17T00:24:43.426Z,86.07
2022-08-17T00:27:10.446Z,86.63
2022-08-17T00:29:37.361Z,86.49
2022-08-17T00:33:14.073Z,86.48
2022-08-17T00:34:51.544Z,86.17
2022-08-17T00:37:18.399Z,86.37
2022-08-17T00:39:45.277Z,86.20
2022-08-17T00:42:15.881Z,86.34
2022-08-17T00:44:42.794Z,86.37
2022-08-17T00:47:09.864Z,86.50
2022-08-17T00:49:36.708Z,86.82
2022-08-17T00:52:15.519Z,86.77
2022-08-17T00:54:48.231Z,86.53
2022-08-17T00:57:23.324Z,86.47
2022-08-17T01:00:03.368Z,86.53
2022-08-17T01:02:41.768Z,86.72
2022-08-17T01:05:18.554Z,86.40
2022-08-17T01:07:48.949Z,86.58
2022-08-17T01:10:59.360Z,86.84
2022-08-17T01:13:07.775Z,86.69
2022-08-17T01:15:46.459Z,86.81
2022-08-17T01:18:14.967Z,87.00
2022-08-17T01:20:49.327Z,87.30
2022-08-17T01:23:20.746Z,86.98
2022-08-17T01:26:01.865Z,86.88
2022-08-17T01:28:53.712Z,86.93
2022-08-17T01:31:22.798Z,86.51
2022-08-17T01:33:49.741Z,86.95
2022-08-17T01:36:16.636Z,86.64
2022-08-17T01:38:43.568Z,86.57
2022-08-17T01:41:15.599Z,86.46
2022-08-17T01:44:05.272Z,86.68
2022-08-17T01:46:36.967Z,86.54
2022-08-17T01:49:09.387Z,86.76
2022-08-17T01:51:37.259Z,86.60
2022-08-17T01:54:11.373Z,86.38
2022-08-17T01:56:44.210Z,86.46
2022-08-17T01:59:15.685Z,86.06
2022-08-17T02:01:43.781Z,86.13
2022-08-17T02:04:11.650Z,86.50
2022-08-17T02:06:52.859Z,86.29
2022-08-17T02:09:25.574Z,86.02
2022-08-17T02:11:56.512Z,85.95
2022-08-17T02:14:24.665Z,85.78
2022-08-17T02:16:53.240Z,86.02
2022-08-17T02:19:20.378Z,86.20
2022-08-17T02:21:52.166Z,86.50
2022-08-17T02:25:01.293Z,86.64
2022-08-17T02:27:16.284Z,87.22
2022-08-17T02:29:43.241Z,87.94
2022-08-17T02:32:27.401Z,88.08
2022-08-17T02:34:57.455Z,88.32
2022-08-17T02:37:27.166Z,88.29
2022-08-17T02:39:57.163Z,87.86
2022-08-17T02:42:31.449Z,88.04
2022-08-17T02:44:59.104Z,88.21
2022-08-17T02:47:26.774Z,88.05
2022-08-17T02:49:55.806Z,88.39
2022-08-17T02:52:41.937Z,88.79
2022-08-17T02:55:17.986Z,88.12
2022-08-17T02:57:45.469Z,88.54
2022-08-17T03:00:24.668Z,88.29
2022-08-17T03:02:52.409Z,88.55
2022-08-17T03:05:23.729Z,88.60
2022-08-17T03:07:51.781Z,88.68
2022-08-17T03:10:20.317Z,88.10
2022-08-17T03:12:48.373Z,87.94
2022-08-17T03:15:22.644Z,87.99
2022-08-17T03:17:51.414Z,87.87
2022-08-17T03:20:20.409Z,87.37
2022-08-17T03:22:53.425Z,87.76
2022-08-17T03:25:26.869Z,87.96
2022-08-17T03:27:55.116Z,88.76
2022-08-17T03:30:23.404Z,89.24
2022-08-17T03:32:55.696Z,90.14
2022-08-17T03:35:28.417Z,90.69
2022-08-17T03:38:00.422Z,91.34
2022-08-17T03:40:55.826Z,91.64
2022-08-17T03:43:19.265Z,92.55
2022-08-17T03:46:04.902Z,92.85
2022-08-17T03:48:51.556Z,93.04
2022-08-17T03:51:43.363Z,92.74
2022-08-17T03:54:29.578Z,92.67
2022-08-17T03:57:09.278Z,92.28
2022-08-17T03:59:38.002Z,92.68
2022-08-17T04:02:11.406Z,91.92
2022-08-17T04:04:39.624Z,92.62
2022-08-17T04:07:06.809Z,92.46
2022-08-17T04:09:34.083Z,92.98
2022-08-17T04:12:02.386Z,93.39
2022-08-17T04:14:37.862Z,93.37
2022-08-17T04:17:21.652Z,93.54
2022-08-17T04:19:48.582Z,93.50
2022-08-17T04:22:31.290Z,93.29
2022-08-17T04:25:17.076Z,93.08
2022-08-17T04:27:43.999Z,93.62
2022-08-17T04:30:12.202Z,94.07
2022-08-17T04:33:12.249Z,94.02
2022-08-17T04:35:45.876Z,94.18
2022-08-17T04:38:18.201Z,93.81
2022-08-17T04:41:04.853Z,95.00
2022-08-17T04:43:34.292Z,95.65
2022-08-17T04:46:06.558Z,96.08
2022-08-17T04:48:42.643Z,96.00
2022-08-17T04:51:31.170Z,95.51
2022-08-17T04:54:07.907Z,95.79
2022-08-17T04:56:35.573Z,96.67
2022-08-17T04:59:12.233Z,96.64
2022-08-17T05:01:41.571Z,96.75
2022-08-17T05:04:33.006Z,96.27
2022-08-17T05:07:01.573Z,96.22
2022-08-17T05:09:29.023Z,96.52
2022-08-17T05:11:56.178Z,96.28
2022-08-17T05:14:32.999Z,96.36
2022-08-17T05:17:02.021Z,96.12
2022-08-17T05:19:34.449Z,95.39
2022-08-17T05:22:05.958Z,94.88
2022-08-17T05:24:39.061Z,94.60
2022-08-17T05:27:10.688Z,94.35
2022-08-17T05:29:44.684Z,94.10
2022-08-17T05:32:39.536Z,94.05
2022-08-17T05:35:00.963Z,94.19
2022-08-17T05:37:28.193Z,94.09
2022-08-17T05:39:55.154Z,93.87
2022-08-17T05:42:22.522Z,93.80
2022-08-17T05:44:49.608Z,93.59
2022-08-17T05:47:18.349Z,93.25
2022-08-17T05:49:45.298Z,92.87
2022-08-17T05:52:33.982Z,92.59
2022-08-17T05:55:24.771Z,92.74
2022-08-17T05:58:34.837Z,92.28
2022-08-17T06:01:17.803Z,92.50
2022-08-17T06:04:30.889Z,91.88
2022-08-17T06:07:31.785Z,91.57
2022-08-17T06:10:18.420Z,91.24
2022-08-17T06:13:04.472Z,90.98
2022-08-17T06:16:04.649Z,90.75
2022-08-17T06:19:00.097Z,90.20
2022-08-17T06:21:38.667Z,90.16
2022-08-17T06:24:48.056Z,89.62
2022-08-17T06:27:32.945Z,88.83
2022-08-17T06:30:11.024Z,88.32
2022-08-17T06:32:42.813Z,87.26
2022-08-17T06:35:15.243Z,86.80
2022-08-17T06:38:38.093Z,86.70
2022-08-17T06:41:23.433Z,85.87
2022-08-17T06:44:06.505Z,85.26
2022-08-17T06:46:48.488Z,85.58
2022-08-17T06:49:26.274Z,84.77
2022-08-17T06:52:06.815Z,84.12
2022-08-17T06:55:18.047Z,84.14
2022-08-17T06:58:05.350Z,83.67
2022-08-17T07:00:47.357Z,83.34
2022-08-17T07:03:37.810Z,82.39
2022-08-17T07:06:20.723Z,82.42
2022-08-17T07:08:54.097Z,82.27
2022-08-17T07:11:32.219Z,81.36
2022-08-17T07:14:22.389Z,81.35
2022-08-17T07:16:53.208Z,81.41
2022-08-17T07:19:26.401Z,81.32
2022-08-17T07:22:03.762Z,81.38
2022-08-17T07:24:49.039Z,81.28
2022-08-17T07:27:25.093Z,80.55
2022-08-17T07:30:23.469Z,80.58
2022-08-17T07:33:20.057Z,80.38
2022-08-17T07:35:49.862Z,80.39
2022-08-17T07:38:28.272Z,80.30
2022-08-17T07:40:57.590Z,80.06
2022-08-17T07:43:52.121Z,79.54
2022-08-17T07:47:06.869Z,79.54
2022-08-17T07:49:39.734Z,79.66
2022-08-17T07:52:51.853Z,79.54
2022-08-17T07:55:34.940Z,79.12
2022-08-17T07:58:03.389Z,79.39
2022-08-17T08:00:32.090Z,79.28
2022-08-17T08:03:11.536Z,78.53
2022-08-17T08:05:51.005Z,78.23
2022-08-17T08:08:37.347Z,77.58
2022-08-17T08:11:15.668Z,76.98
2022-08-17T08:13:45.704Z,76.95
2022-08-17T08:16:27.012Z,76.55
2022-08-17T08:18:58.604Z,76.92
2022-08-17T08:21:36.624Z,76.96
2022-08-17T08:24:38.522Z,76.41
2022-08-17T08:27:54.449Z,77.65
2022-08-17T08:30:22.859Z,80.86
2022-08-17T08:33:25.351Z,82.31
2022-08-17T08:36:56.907Z,84.44
2022-08-17T08:39:30.892Z,84.73
2022-08-17T08:42:20.870Z,86.96
2022-08-17T08:45:28.307Z,85.80
2022-08-17T08:48:45.805Z,83.57
2022-08-17T08:51:18.112Z,82.94
2022-08-17T08:54:26.670Z,80.94
2022-08-17T08:57:26.699Z,79.87
2022-08-17T09:00:20.968Z,77.86
2022-08-17T09:03:12.277Z,76.91
2022-08-17T09:06:03.723Z,74.99
2022-08-17T09:08:55.512Z,75.40
2022-08-17T09:12:01.987Z,73.11
2022-08-17T09:14:47.486Z,71.37
2022-08-17T09:17:38.978Z,70.04
2022-08-17T09:20:28.693Z,70.13
2022-08-17T09:23:08.649Z,67.12
2022-08-17T09:25:49.888Z,66.97
2022-08-17T09:28:30.967Z,64.80
2022-08-17T09:31:05.945Z,65.37
2022-08-17T09:33:43.391Z,65.63
2022-08-17T09:36:26.264Z,67.02
2022-08-17T09:39:08.808Z,67.61
2022-08-17T09:41:51.181Z,67.85
2022-08-17T09:44:42.716Z,68.49
2022-08-17T09:47:30.630Z,68.83
2022-08-17T09:50:55.529Z,69.77
2022-08-17T09:53:11.409Z,69.57
2022-08-17T09:56:06.555Z,69.90
2022-08-17T09:59:00.890Z,70.71
2022-08-17T10:02:17.270Z,70.96
2022-08-17T10:04:56.836Z,71.21
2022-08-17T10:07:56.001Z,72.00
2022-08-17T10:10:39.664Z,71.67
2022-08-17T10:13:33.857Z,72.85
2022-08-17T10:16:17.674Z,74.85
2022-08-17T10:19:05.030Z,76.22
2022-08-17T10:22:01.578Z,80.28
2022-08-17T10:25:22.867Z,83.08
2022-08-17T10:28:19.746Z,86.58
2022-08-17T10:31:10.418Z,88.60
2022-08-17T10:34:01.748Z,89.42
2022-08-17T10:37:04.748Z,91.22
2022-08-17T10:39:54.740Z,92.56
2022-08-17T10:42:33.071Z,95.72
2022-08-17T10:45:47.028Z,97.66
2022-08-17T10:48:14.155Z,99.29
2022-08-17T10:50:55.978Z,99.56
2022-08-17T10:53:31.796Z,100.00
2022-08-17T10:56:13.882Z,100.00
2022-08-17T10:59:37.243Z,100.00
2022-08-17T11:02:25.999Z,100.00
2022-08-17T11:05:33.039Z,100.00
2022-08-17T11:08:37.665Z,100.00
2022-08-17T11:11:35.960Z,100.00
2022-08-17T11:14:43.986Z,100.00
2022-08-17T11:17:52.053Z,100.00
2022-08-17T11:20:55.754Z,100.00
2022-08-17T11:24:11.391Z,100.00
2022-08-17T11:26:46.191Z,100.00
2022-08-17T11:29:33.610Z,100.00
2022-08-17T11:32:07.209Z,100.00
2022-08-17T11:34:41.791Z,100.00
2022-08-17T11:37:11.349Z,100.00
2022-08-17T11:39:55.865Z,100.00
2022-08-17T11:43:04.236Z,100.00
2022-08-17T11:46:14.562Z,100.00
2022-08-17T11:49:10.792Z,100.00
2022-08-17T11:52:00.339Z,100.00
2022-08-17T11:54:33.843Z,100.00
2022-08-17T11:57:26.794Z,100.00
2022-08-17T12:00:02.951Z,100.00
2022-08-17T12:02:38.778Z,100.00
2022-08-17T12:05:14.489Z,100.00
2022-08-17T12:07:54.588Z,100.00
2022-08-17T12:10:31.971Z,100.00
2022-08-17T12:13:11.004Z,100.00
2022-08-17T12:15:49.237Z,100.00
2022-08-17T12:18:39.760Z,100.00
2022-08-17T12:21:13.385Z,100.00
2022-08-17T12:23:59.901Z,100.00
2022-08-17T12:26:33.305Z,100.00
2022-08-17T12:29:06.346Z,100.00
2022-08-17T12:31:45.062Z,100.00
2022-08-17T12:34:39.862Z,100.00
2022-08-17T12:37:29.685Z,100.00
2022-08-17T12:40:18.874Z,100.00
2022-08-17T12:42:56.672Z,100.00
2022-08-17T12:45:31.840Z,100.00
2022-08-17T12:48:11.053Z,100.00
2022-08-17T12:50:45.166Z,100.00
2022-08-17T12:53:23.073Z,100.00
2022-08-17T12:55:54.037Z,100.00
2022-08-17T12:58:28.769Z,100.00
2022-08-17T13:01:09.509Z,100.00
2022-08-17T13:03:44.075Z,100.00
2022-08-17T13:06:25.217Z,100.00
2022-08-17T13:08:52.305Z,100.00
2022-08-17T13:11:24.585Z,100.00
2022-08-17T13:13:56.623Z,100.00
2022-08-17T13:16:33.351Z,100.00
2022-08-17T13:19:15.140Z,100.00
2022-08-17T13:21:49.364Z,100.00
2022-08-17T13:24:29.524Z,100.00
2022-08-17T13:27:08.593Z,100.00
2022-08-17T13:29:44.200Z,100.00
2022-08-17T13:32:14.267Z,100.00
2022-08-17T13:35:13.030Z,100.00
2022-08-17T13:37:36.727Z,100.00
2022-08-17T13:40:09.620Z,100.00
2022-08-17T13:42:50.198Z,100.00
2022-08-17T13:45:36.125Z,100.00
2022-08-17T13:48:11.863Z,100.00
2022-08-17T13:51:09.829Z,100.00
2022-08-17T13:53:37.022Z,100.00
2022-08-17T13:56:33.185Z,100.00
2022-08-17T13:59:15.182Z,100.00
2022-08-17T14:01:51.077Z,100.00
2022-08-17T14:04:24.822Z,100.00
2022-08-17T14:07:01.989Z,100.00
2022-08-17T14:09:37.667Z,100.00
2022-08-17T14:12:11.590Z,100.00
2022-08-17T14:14:39.311Z,100.00
2022-08-17T14:17:07.975Z,100.00
2022-08-17T14:19:36.015Z,100.00
2022-08-17T14:22:04.986Z,100.00
2022-08-17T14:24:40.028Z,100.00
2022-08-17T14:27:11.961Z,100.00
2022-08-17T14:29:41.053Z,100.00
2022-08-17T14:32:20.999Z,100.00
2022-08-17T14:34:49.620Z,100.00
2022-08-17T14:37:21.259Z,100.00
2022-08-17T14:39:48.360Z,100.00
2022-08-17T14:42:15.532Z,100.00
2022-08-17T14:44:42.391Z,100.00
2022-08-17T14:47:15.890Z,100.00
2022-08-17T14:49:43.683Z,100.00
2022-08-17T14:52:20.797Z,100.00
2022-08-17T14:54:51.321Z,100.00
2022-08-17T14:57:34.245Z,100.00
2022-08-17T15:00:03.335Z,100.00
2022-08-17T15:02:31.034Z,100.00
2022-08-17T15:05:06.274Z,100.00
2022-08-17T15:07:33.172Z,100.00
2022-08-17T15:10:01.597Z,100.00
2022-08-17T15:12:34.628Z,100.00
2022-08-17T15:15:05.430Z,100.00
2022-08-17T15:17:45.063Z,100.00
2022-08-17T15:20:26.324Z,100.00
2022-08-17T15:22:57.455Z,100.00
2022-08-17T15:25:28.200Z,100.00
2022-08-17T15:27:56.036Z,100.00
2022-08-17T15:30:25.667Z,100.00
2022-08-17T15:32:55.145Z,100.00
2022-08-17T15:35:29.108Z,100.00
2022-08-17T15:38:11.614Z,100.00
2022-08-17T15:40:51.426Z,100.00
2022-08-17T15:43:27.352Z,100.00
2022-08-17T15:46:12.169Z,100.00
2022-08-17T15:48:43.058Z,100.00
2022-08-17T15:51:13.233Z,100.00
2022-08-17T15:53:43.223Z,100.00
2022-08-17T15:56:11.239Z,100.00
2022-08-17T15:58:38.475Z,100.00
2022-08-17T16:01:14.738Z,100.00
2022-08-17T16:04:06.717Z,100.00
2022-08-17T16:06:34.762Z,100.00
2022-08-17T16:09:01.878Z,100.00
2022-08-17T16:11:28.748Z,100.00
2022-08-17T16:13:56.081Z,100.00
2022-08-17T16:16:24.239Z,100.00
2022-08-17T16:18:55.673Z,100.00
2022-08-17T16:21:26.712Z,100.00
2022-08-17T16:24:06.211Z,100.00
2022-08-17T16:26:40.551Z,100.00
2022-08-17T16:29:08.453Z,100.00
2022-08-17T16:31:37.549Z,100.00
2022-08-17T16:34:17.023Z,100.00
2022-08-17T16:36:55.093Z,100.00
2022-08-17T16:39:29.248Z,100.00
2022-08-17T16:41:57.769Z,100.00
2022-08-17T16:44:25.823Z,100.00
2022-08-17T16:46:53.400Z,100.00
2022-08-17T16:49:24.407Z,100.00
2022-08-17T16:52:05.906Z,100.00
2022-08-17T16:54:35.489Z,100.00
2022-08-17T16:57:05.126Z,100.00
2022-08-17T16:59:40.869Z,100.00
2022-08-17T17:02:14.547Z,100.00
2022-08-17T17:05:00.046Z,100.00
2022-08-17T17:08:15.042Z,100.00
2022-08-17T17:10:51.277Z,100.00
2022-08-17T17:13:25.699Z,100.00
2022-08-17T17:16:18.359Z,100.00
2022-08-17T17:19:10.211Z,100.00
2022-08-17T17:22:18.284Z,100.00
2022-08-17T17:25:04.397Z,100.00
2022-08-17T17:28:26.281Z,100.00
2022-08-17T17:31:07.458Z,100.00
2022-08-17T17:33:42.955Z,100.00
2022-08-17T17:36:33.060Z,100.00
2022-08-17T17:39:10.235Z,100.00
2022-08-17T17:41:54.809Z,100.00
2022-08-17T17:44:32.896Z,100.00
2022-08-17T17:47:03.158Z,100.00
2022-08-17T17:49:44.609Z,100.00
2022-08-17T17:52:15.623Z,100.00
2022-08-17T17:55:05.693Z,100.00
2022-08-17T17:57:59.390Z,100.00
2022-08-17T18:00:33.904Z,100.00
2022-08-17T18:03:34.037Z,100.00
2022-08-17T18:06:17.341Z,100.00
2022-08-17T18:09:43.526Z,100.00
2022-08-17T18:13:10.939Z,100.00
2022-08-17T18:15:51.080Z,100.00
2022-08-17T18:18:17.872Z,100.00
2022-08-17T18:20:53.779Z,100.00
2022-08-17T18:23:27.988Z,100.00
2022-08-17T18:25:58.098Z,100.00
2022-08-17T18:28:39.807Z,100.00
2022-08-17T18:31:20.063Z,100.00
2022-08-17T18:34:36.094Z,100.00
2022-08-17T18:37:09.346Z,100.00
2022-08-17T18:39:39.487Z,100.00
2022-08-17T18:42:26.240Z,100.00
2022-08-17T18:44:55.436Z,100.00
2022-08-17T18:47:29.372Z,100.00
2022-08-17T18:50:26.613Z,100.00
2022-08-17T18:52:56.011Z,100.00
2022-08-17T18:55:29.273Z,100.00
2022-08-17T18:58:14.933Z,100.00
2022-08-17T19:00:46.114Z,100.00
2022-08-17T19:03:16.009Z,100.00
2022-08-17T19:05:47.003Z,100.00
2022-08-17T19:08:29.205Z,100.00
2022-08-17T19:11:03.567Z,100.00
2022-08-17T19:13:42.319Z,100.00
2022-08-17T19:16:28.204Z,100.00
2022-08-17T19:19:09.976Z,100.00
2022-08-17T19:21:45.034Z,100.00
2022-08-17T19:24:22.819Z,100.00
2022-08-17T19:27:03.228Z,100.00
2022-08-17T19:29:53.825Z,100.00
2022-08-17T19:32:27.361Z,100.00
2022-08-17T19:34:56.745Z,100.00
2022-08-17T19:38:00.559Z,100.00
2022-08-17T19:41:00.488Z,100.00
2022-08-17T19:44:14.798Z,100.00
2022-08-17T19:47:06.057Z,100.00
2022-08-17T19:50:07.108Z,100.00
2022-08-17T19:52:56.522Z,100.00
2022-08-17T19:55:37.698Z,100.00
2022-08-17T19:58:12.117Z,100.00
2022-08-17T20:00:52.109Z,100.00
2022-08-17T20:03:34.878Z,100.00
2022-08-17T20:06:14.808Z,100.00
2022-08-17T20:08:58.162Z,100.00
2022-08-17T20:11:45.120Z,100.00
2022-08-17T20:14:24.800Z,100.00
2022-08-17T20:16:52.299Z,100.00
2022-08-17T20:19:37.307Z,100.00
2022-08-17T20:22:15.319Z,100.00
2022-08-17T20:25:12.291Z,100.00
2022-08-17T20:27:53.602Z,100.00
2022-08-17T20:30:40.605Z,100.00
2022-08-17T20:33:33.937Z,100.00
2022-08-17T20:36:16.255Z,100.00
2022-08-17T20:38:47.133Z,100.00
2022-08-17T20:41:20.919Z,100.00
2022-08-17T20:43:55.477Z,100.00
2022-08-17T20:46:37.971Z,100.00
2022-08-17T20:49:21.489Z,100.00
2022-08-17T20:52:13.540Z,100.00
2022-08-17T20:54:57.335Z,100.00
2022-08-17T20:57:33.227Z,100.00
2022-08-17T21:00:16.729Z,100.00
2022-08-17T21:02:50.753Z,100.00
2022-08-17T21:05:34.290Z,100.00
2022-08-17T21:08:25.568Z,100.00
2022-08-17T21:10:53.256Z,100.00
2022-08-17T21:13:35.809Z,100.00
2022-08-17T21:16:21.985Z,100.00
2022-08-17T21:20:00.586Z,100.00
2022-08-17T21:22:47.141Z,100.00
2022-08-17T21:26:30.164Z,100.00
2022-08-17T21:29:31.827Z,100.00
2022-08-17T21:31:59.512Z,100.00
2022-08-17T21:34:43.227Z,100.00
2022-08-17T21:37:22.397Z,100.00
2022-08-17T21:40:10.623Z,100.00
2022-08-17T21:43:18.077Z,100.00
2022-08-17T21:46:00.717Z,100.00
2022-08-17T21:48:32.270Z,100.00
2022-08-17T21:51:28.149Z,100.00
2022-08-17T21:54:02.845Z,100.00
2022-08-17T21:56:32.875Z,100.00
2022-08-17T21:59:20.875Z,100.00
2022-08-17T22:02:08.583Z,100.00
2022-08-17T22:04:40.590Z,100.00
2022-08-17T22:07:12.560Z,100.00
2022-08-17T22:09:48.543Z,100.00
2022-08-17T22:12:22.751Z,100.00
2022-08-17T22:15:05.870Z,100.00
2022-08-17T22:17:45.279Z,100.00
2022-08-17T22:20:20.859Z,100.00
2022-08-17T22:23:06.166Z,100.00
2022-08-17T22:25:40.627Z,100.00
2022-08-17T22:28:12.059Z,100.00
2022-08-17T22:31:00.518Z,100.00
2022-08-17T22:33:33.363Z,100.00
2022-08-17T22:36:11.300Z,100.00
2022-08-17T22:38:39.478Z,100.00
2022-08-17T22:41:42.701Z,100.00
2022-08-17T22:44:23.425Z,100.00
2022-08-17T22:47:02.583Z,100.00
2022-08-17T22:49:57.593Z,100.00
2022-08-17T22:53:02.439Z,100.00
2022-08-17T22:55:52.372Z,100.00
2022-08-17T22:58:43.246Z,100.00
2022-08-17T23:01:34.764Z,100.00
2022-08-17T23:04:13.248Z,100.00
2022-08-17T23:06:44.309Z,100.00
2022-08-17T23:09:11.177Z,100.00
2022-08-17T23:11:55.777Z,100.00
2022-08-17T23:14:22.795Z,100.00
2022-08-17T23:16:52.537Z,100.00
2022-08-17T23:19:21.877Z,100.00
2022-08-17T23:21:52.434Z,100.00
2022-08-17T23:24:35.682Z,100.00
2022-08-17T23:27:07.293Z,100.00
2022-08-17T23:29:35.478Z,100.00
2022-08-17T23:32:04.680Z,100.00
2022-08-17T23:34:31.749Z,100.00
2022-08-17T23:37:02.240Z,100.00
2022-08-17T23:39:29.355Z,100.00
2022-08-17T23:42:00.198Z,100.00
2022-08-17T23:44:28.874Z,100.00
2022-08-17T23:46:56.325Z,100.00
2022-08-17T23:49:25.035Z,100.00
2022-08-17T23:51:55.096Z,100.00
2022-08-17T23:54:29.760Z,100.00
2022-08-17T23:56:56.655Z,100.00
2022-08-17T23:59:23.684Z,100.00
